Latest Weather Observations for Young

IDN60801

Issued at 4:35 pm EST Tuesday 2 September 2014 (issued every 30 minutes, with the page automatically refreshed every 10 minutes)

About weather observations | Map of weather stations | Latest weather observations for NSW | Other Formats
Station Details ID: 073138 Name: YOUNG AIRPORT Lat: -34.25 Lon: 148.25 Height: 379.6 m
Data from the previous 72 hours. | See also: Recent months at Young
Date/Time
EST
Temp
°C
App
Temp
°C
Dew
Point
Rel
Hum
%
Delta-T
°C
Wind Press
QNH
hPa
Press
MSL
hPa
Rain
since 9 am
mm
Dir
 
Spd
km/h
Gust
km/h
Spd
kts
Gust
kts
02/04:30pm 12.6 5.6 4.3 57 3.9 SW 30 43 16 23 1012.4 - 0.2
02/04:00pm 13.1 5.6 3.7 53 4.3 SW 32 48 17 26 1012.1 1012.1 0.2
02/03:54pm 13.2 6.2 4.1 54 4.2 SW 30 48 16 26 1012.2 - 0.2
02/03:30pm 13.2 6.3 4.4 55 4.1 SW 30 44 16 24 1012.2 - 0.2
02/03:05pm 13.3 6.8 4.7 56 4.0 WSW 28 48 15 26 1012.0 - 0.2
02/03:00pm 13.8 7.5 5.9 59 3.8 WSW 28 43 15 23 1012.0 1012.0 0.2
02/02:43pm 13.1 6.2 4.8 57 3.9 SW 30 48 16 26 1012.1 - 0.2
02/02:30pm 13.7 8.0 6.8 63 3.4 SW 26 43 14 23 1012.0 - 0.2
02/02:17pm 13.1 6.7 5.3 59 3.7 WSW 28 46 15 25 1011.8 - 0.2
02/02:00pm 13.7 7.6 6.6 62 3.5 SW 28 43 15 23 1011.8 1011.9 0.2
02/01:30pm 13.6 6.9 7.2 65 3.2 SW 32 44 17 24 1012.0 - 0.2
02/01:00pm 12.8 6.5 5.7 62 3.4 WSW 28 43 15 23 1012.1 1012.1 0.0
02/12:46pm 12.4 6.2 6.0 65 3.1 SW 28 46 15 25 1012.1 - 0.0
02/12:30pm 12.3 6.7 7.0 70 2.6 WSW 26 39 14 21 1012.2 - 0.0
02/12:00pm 12.2 7.0 7.1 71 2.5 WSW 24 35 13 19 1012.4 1012.5 0.0
02/11:30am 11.2 5.4 6.3 72 2.3 SW 26 37 14 20 1012.6 - 0.0
02/11:00am 11.1 5.5 7.2 77 1.9 SW 26 39 14 21 1012.9 1013.0 0.0
02/10:30am 10.4 5.2 7.3 81 1.5 SW 24 33 13 18 1012.8 - 0.0
02/10:00am 8.4 3.1 6.7 89 0.8 SW 24 35 13 19 1013.0 1013.1 0.0
02/09:30am 9.0 3.2 6.3 83 1.3 SW 26 39 14 21 1012.8 - 0.0
02/09:00am 8.7 3.8 6.7 87 0.9 WSW 22 35 12 19 1012.8 1012.9 2.2
02/08:30am 8.2 2.7 6.0 86 1.0 SW 24 33 13 18 1012.9 - 2.2
02/08:00am 8.0 3.4 6.6 91 0.7 WSW 20 28 11 15 1012.8 1012.9 2.2
02/07:30am 8.1 4.6 7.0 93 0.5 WSW 15 24 8 13 1012.5 - 1.8
02/07:00am 7.9 5.1 7.0 94 0.4 WSW 11 20 6 11 1012.2 1012.3 1.8
02/06:30am 8.2 4.8 7.6 96 0.3 WSW 15 22 8 12 1011.8 - 1.8
02/06:00am 8.1 5.5 7.7 97 0.2 W 11 20 6 11 1011.3 1011.4 1.6
02/05:30am 7.9 5.6 7.3 96 0.3 W 9 15 5 8 1011.3 - 1.4
02/05:00am 8.1 4.6 7.3 95 0.4 WSW 15 22 8 12 1011.3 1011.4 1.4
02/04:30am 8.1 6.4 7.7 97 0.2 W 6 9 3 5 1011.2 - 1.2
02/04:00am 8.0 7.4 7.6 97 0.2 CALM 0 6 0 3 1011.4 1011.5 0.8
02/03:30am 7.9 6.1 7.3 96 0.3 NNW 6 9 3 5 1011.3 - 0.6
02/03:00am 8.1 6.3 7.2 94 0.4 W 6 9 3 5 1011.2 1011.3 0.4
02/02:30am 8.4 6.5 7.5 94 0.4 W 7 11 4 6 1011.4 - 0.4
02/02:00am 8.8 6.9 7.6 92 0.6 W 7 13 4 7 1011.7 1011.8 0.2
02/01:30am 9.1 5.7 7.7 91 0.7 SW 15 20 8 11 1011.5 - 0.2
02/01:00am 10.0 8.3 7.4 84 1.3 WNW 6 7 3 4 1012.3 1012.4 0.0
02/12:30am 10.0 8.6 7.3 83 1.3 W 4 7 2 4 1012.3 - 0.0
02/12:00am 10.0 8.6 7.1 82 1.4 W 4 9 2 5 1012.6 1012.7 0.0
 
Date/Time
EST
Temp
°C
App
Temp
°C
Dew
Point
Rel
Hum
%
Delta-T
°C
Wind Press
QNH
hPa
Press
MSL
hPa
Rain
since 9 am
mm
Dir
 
Spd
km/h
Gust
km/h
Spd
kts
Gust
kts
01/11:30pm 10.1 8.2 6.8 80 1.6 SW 6 7 3 4 1012.8 - 0.0
01/11:00pm 10.5 7.7 7.0 79 1.7 SSW 11 15 6 8 1012.7 1012.8 0.0
01/10:30pm 10.7 7.4 6.6 76 2.0 SW 13 22 7 12 1012.7 - 0.0
01/10:00pm 11.0 6.4 6.6 74 2.1 SW 20 28 11 15 1012.5 1012.6 0.0
01/09:30pm 11.9 7.2 5.3 64 3.1 SW 19 26 10 14 1012.1 - 0.0
01/09:00pm 13.2 5.8 4.9 57 3.9 SW 33 44 18 24 1011.4 1011.5 0.0
01/08:58pm 13.5 5.7 4.9 56 4.1 SW 35 44 19 24 1011.4 - 0.0
01/08:30pm 11.4 9.4 6.9 74 2.2 N 7 9 4 5 1010.2 - 0.0
01/08:00pm 11.9 9.9 7.0 72 2.4 N 7 9 4 5 1010.4 1010.5 0.0
01/07:30pm 12.2 10.2 7.1 71 2.5 N 7 9 4 5 1010.5 - 0.0
01/07:00pm 12.4 10.1 7.5 72 2.4 N 9 11 5 6 1010.7 1010.8 0.0
01/06:30pm 12.8 10.9 7.7 71 2.5 N 7 9 4 5 1010.6 - 0.0
01/06:00pm 13.4 11.6 7.8 69 2.8 N 7 7 4 4 1010.8 1010.9 0.0
01/05:30pm 14.4 12.7 8.4 67 3.1 N 7 9 4 5 1010.9 - 0.0
01/05:00pm 15.9 13.4 8.2 60 4.0 N 11 17 6 9 1010.9 1011.0 0.0
01/04:30pm 17.0 14.7 8.9 59 4.3 N 11 15 6 8 1011.0 - 0.0
01/04:00pm 17.9 14.3 8.2 53 5.1 N 17 28 9 15 1011.2 1011.3 0.0
01/03:30pm 19.2 14.9 7.9 48 5.9 N 20 28 11 15 1011.2 - 0.0
01/03:00pm 19.2 14.8 7.3 46 6.2 N 20 30 11 16 1011.5 1011.6 0.0
01/02:30pm 19.1 14.8 7.8 48 5.9 NNW 20 28 11 15 1012.1 - 0.0
01/02:00pm 19.5 15.8 9.4 52 5.4 NNW 19 28 10 15 1012.4 1012.5 0.0
01/01:30pm 18.9 15.1 9.7 55 5.0 NNW 20 30 11 16 1012.6 - 0.0
01/01:00pm 17.5 13.5 9.2 58 4.4 NNW 20 30 11 16 1013.2 1013.3 0.0
01/12:30pm 17.8 13.7 8.6 55 4.8 N 20 26 11 14 1013.8 - 0.0
01/12:00pm 16.9 13.0 8.8 59 4.3 NNW 19 28 10 15 1014.8 1014.9 0.0
01/11:30am 17.0 11.9 7.6 54 4.8 NNW 24 33 13 18 1015.1 - 0.0
01/11:00am 16.7 12.6 8.7 59 4.2 NNW 20 28 11 15 1015.4 1015.5 0.0
01/10:30am 15.1 11.5 8.3 64 3.5 N 17 22 9 12 1015.7 - 0.0
01/10:00am 14.2 10.3 8.8 70 2.8 N 19 26 10 14 1016.1 1016.2 0.0
01/09:30am 11.7 9.3 8.7 82 1.5 N 11 13 6 7 1016.5 - 0.0
01/09:00am 8.7 8.1 7.5 92 0.6 CALM 0 2 0 1 1016.6 1017.2 0.2
01/08:30am 6.9 5.9 5.8 93 0.5 CALM 0 0 0 0 1017.0 - 0.2
01/08:00am 4.4 1.9 4.0 97 0.2 S 6 7 3 4 1017.0 1017.6 0.2
01/07:30am 2.3 -0.5 1.9 97 0.2 S 6 7 3 4 1017.0 - 0.2
01/07:00am 1.2 -1.8 1.1 99 0.0 SW 6 7 3 4 1016.9 1017.5 0.2
01/06:30am -0.5 -3.9 -0.8 98 0.1 S 7 7 4 4 1016.9 - 0.2
01/06:00am -0.4 -3.6 -0.7 98 0.1 SW 6 7 3 4 1016.8 1017.4 0.2
01/05:30am -0.3 -3.7 -0.6 98 0.1 S 7 9 4 5 1016.6 - 0.2
01/05:00am -0.3 -3.5 -0.6 98 0.1 SW 6 7 3 4 1016.5 1017.1 0.2
01/04:30am -0.4 -3.8 -0.8 97 0.1 S 7 7 4 4 1016.3 - 0.2
01/04:00am 0.0 -3.4 -0.3 98 0.1 SSW 7 7 4 4 1016.2 1016.8 0.2
01/03:30am 0.2 -3.1 -0.2 97 0.1 S 7 9 4 5 1016.1 - 0.2
01/03:00am -0.3 -3.7 -0.7 97 0.1 SW 7 9 4 5 1016.5 1017.1 0.2
01/02:30am 0.4 -2.7 0.1 98 0.1 S 6 9 3 5 1016.5 - 0.2
01/02:00am 0.3 -2.8 -0.1 97 0.1 SSW 6 7 3 4 1016.7 1017.3 0.2
01/01:30am 0.6 -2.7 0.0 96 0.2 SSW 7 9 4 5 1016.7 - 0.2
01/01:00am 1.0 -2.3 0.4 96 0.2 S 7 9 4 5 1017.0 1017.6 0.2
01/12:30am 0.8 -2.5 0.4 97 0.2 SSW 7 7 4 4 1017.1 - 0.2
01/12:00am 1.1 -2.1 0.7 97 0.2 S 7 9 4 5 1017.3 1017.9 0.2
 
Date/Time
EST
Temp
°C
App
Temp
°C
Dew
Point
Rel
Hum
%
Delta-T
°C
Wind Press
QNH
hPa
Press
MSL
hPa
Rain
since 9 am
mm
Dir
 
Spd
km/h
Gust
km/h
Spd
kts
Gust
kts
31/11:30pm 0.8 -2.9 0.2 96 0.2 S 9 9 5 5 1017.6 - 0.2
31/11:00pm 1.1 -2.1 0.5 96 0.2 SW 7 9 4 5 1017.8 1018.3 0.2
31/10:30pm 1.6 -1.6 1.0 96 0.2 SSW 7 9 4 5 1018.1 - 0.2
31/10:00pm 1.9 -1.2 1.5 97 0.2 S 7 9 4 5 1018.4 1019.0 0.2
31/09:30pm 1.9 -1.3 1.0 94 0.3 SSW 7 9 4 5 1018.5 - 0.2
31/09:00pm 2.5 -0.4 1.5 93 0.4 S 6 7 3 4 1018.7 1019.3 0.2
31/08:30pm 3.4 0.7 2.4 93 0.4 SSW 6 7 3 4 1018.6 - 0.2
31/08:00pm 4.2 1.4 3.0 92 0.5 SSW 7 7 4 4 1018.7 1019.3 0.2
31/07:30pm 4.8 2.1 3.5 91 0.6 S 7 9 4 5 1018.6 - 0.2
31/07:00pm 6.3 3.9 4.5 88 0.8 SW 6 7 3 4 1018.3 1018.9 0.2
31/06:30pm 7.3 5.0 4.8 84 1.1 SSW 6 7 3 4 1017.9 - 0.2
31/06:00pm 10.1 8.8 6.1 76 1.9 SSW 2 6 1 3 1017.8 1018.3 0.2
31/05:30pm 14.6 13.6 7.2 61 3.7 WSW 2 6 1 3 1017.7 - 0.2
31/05:00pm 17.3 16.4 6.2 48 5.5 CALM 0 0 0 0 1017.6 1018.1 0.2
31/04:30pm 17.1 14.9 6.0 48 5.5 WNW 7 11 4 6 1017.6 - 0.2
31/04:00pm 17.8 15.7 5.7 45 6.0 NW 6 13 3 7 1017.6 1018.1 0.2
31/03:30pm 17.9 16.0 6.7 48 5.7 NNW 6 9 3 5 1017.7 - 0.2
31/03:00pm 18.0 15.7 5.9 45 6.0 NW 7 13 4 7 1017.8 1018.3 0.2
31/02:30pm 18.0 16.0 6.2 46 5.9 W 6 9 3 5 1018.1 - 0.2
31/02:00pm 17.5 14.7 7.0 50 5.3 WNW 11 17 6 9 1018.4 1019.0 0.2
31/01:30pm 17.4 15.0 7.2 51 5.2 W 9 13 5 7 1018.8 - 0.2
31/01:00pm 16.8 13.8 6.0 49 5.3 NW 11 17 6 9 1019.2 1019.8 0.2
31/12:30pm 17.5 14.8 7.3 51 5.2 NNW 11 17 6 9 1019.6 - 0.2
31/12:00pm 16.8 15.1 7.7 55 4.7 WNW 6 9 3 5 1020.4 1021.0 0.2
31/11:30am 16.5 14.6 6.9 53 4.8 NE 6 9 3 5 1020.7 - 0.2
31/11:00am 16.3 15.3 9.0 62 3.8 SE 4 7 2 4 1021.3 1021.9 0.2
31/10:30am 15.1 14.5 8.8 66 3.3 WNW 2 9 1 5 1021.7 - 0.2
31/10:00am 14.5 13.9 9.1 70 2.8 NNE 2 6 1 3 1021.9 1022.5 0.0
31/09:30am 13.0 12.2 8.3 73 2.4 N 2 6 1 3 1022.0 - 0.0
31/09:00am 10.3 9.4 7.9 85 1.2 S 2 7 1 4 1022.0 1022.6 0.0
31/08:30am 7.3 6.5 6.4 94 0.4 CALM 0 0 0 0 1022.0 - 0.0
31/08:00am 4.6 2.2 4.2 97 0.2 S 6 7 3 4 1022.0 1022.6 0.0
31/07:30am 1.8 -1.1 1.7 99 0.0 SSW 6 7 3 4 1021.8 - 0.0
31/07:00am -0.2 -3.4 -0.3 99 0.0 SSE 6 7 3 4 1021.6 1022.2 0.0
31/06:30am -0.8 -4.3 -1.1 98 0.1 S 7 7 4 4 1021.3 - 0.0
31/06:00am -0.5 -3.9 -0.8 98 0.1 SSW 7 7 4 4 1020.8 1021.4 0.0
31/05:30am -0.4 -3.6 -0.7 98 0.1 S 6 7 3 4 1020.7 - 0.0
31/05:00am 0.5 -2.6 0.4 99 0.0 SSW 6 7 3 4 1020.8 1021.4 0.0
31/04:30am -0.3 -3.5 -0.7 97 0.1 S 6 7 3 4 1020.8 - 0.0
31/04:00am 0.0 -3.4 -0.3 98 0.1 SSW 7 9 4 5 1020.8 1021.4 0.0
31/03:30am 0.3 -3.0 0.0 98 0.1 S 7 9 4 5 1021.0 - 0.0
31/03:00am 0.6 -2.6 0.5 99 0.0 SW 7 9 4 5 1021.2 1021.8 0.0
31/02:30am 0.6 -2.6 0.5 99 0.0 S 7 9 4 5 1021.3 - 0.0
31/02:00am 0.7 -2.6 0.4 98 0.1 S 7 9 4 5 1021.6 1022.2 0.0
31/01:30am 0.8 -2.4 0.5 98 0.1 S 7 9 4 5 1021.9 - 0.0
31/01:00am 1.3 -1.7 0.9 97 0.2 S 6 9 3 5 1022.2 1022.8 0.0
31/12:30am 1.5 -1.6 1.1 97 0.2 S 7 9 4 5 1022.4 - 0.0
31/12:00am 1.6 -1.6 1.0 96 0.2 SSW 7 7 4 4 1022.4 1023.0 0.0
 
Date/Time
EST
Temp
°C
App
Temp
°C
Dew
Point
Rel
Hum
%
Delta-T
°C
Wind Press
QNH
hPa
Press
MSL
hPa
Rain
since 9 am
mm
Dir
 
Spd
km/h
Gust
km/h
Spd
kts
Gust
kts
30/11:30pm 2.1 -0.7 1.8 98 0.1 S 6 7 3 4 1022.6 - 0.0
30/11:00pm 2.2 -0.9 1.6 96 0.2 SSW 7 9 4 5 1022.7 1023.4 0.0
30/10:30pm 2.7 -0.3 2.1 96 0.2 SSW 7 9 4 5 1022.8 - 0.0
30/10:00pm 3.1 0.2 2.7 97 0.2 S 7 9 4 5 1022.9 1023.6 0.0
30/09:30pm 3.1 0.2 2.5 96 0.2 SSW 7 9 4 5 1023.1 - 0.0
30/09:00pm 3.6 0.8 3.0 96 0.2 SW 7 9 4 5 1023.1 1023.7 0.0
30/08:30pm 4.4 1.9 3.7 95 0.3 SSW 6 7 3 4 1022.9 - 0.0
30/08:00pm 4.8 2.7 4.1 95 0.3 SSE 4 7 2 4 1022.9 1023.6 0.0
30/07:30pm 5.2 2.6 4.0 92 0.5 SW 7 9 4 5 1022.8 - 0.0
30/07:00pm 6.6 4.2 5.1 90 0.7 SSW 7 9 4 5 1022.6 1023.3 0.0
30/06:30pm 7.7 5.4 5.8 88 0.9 SW 7 9 4 5 1022.4 - 0.0
30/06:00pm 10.6 9.8 6.6 76 1.9 CALM 0 0 0 0 1022.3 1022.9 0.0
30/05:30pm 14.1 11.9 7.9 66 3.1 ENE 9 11 5 6 1022.3 - 0.0
30/05:00pm 15.8 13.5 7.6 58 4.2 E 9 13 5 7 1022.3 1022.9 0.0

Other Formats:

Comma delimited format used in spreadsheet applications
http://www.bom.gov.au/fwo/IDN60801/IDN60801.94712.axf

JavaScript Object Notation format (JSON) in row-major order
http://www.bom.gov.au/fwo/IDN60801/IDN60801.94712.json